Time;durP1;ratioP1;P1;durP2;ratioP2;P2;SDS_P1;SDS_P2;PMS_P1;PMS_P2;Temp;Humidity;BMP_temperature;BMP_pressure;BME280_temperature;BME280_humidity;BME280_pressure;Samples;Min_cycle;Max_cycle;Signal;HPM_P1;HPM_P2
2023/09/23 00:01:25;;;;;;;4.93;2.70;;;;;;;14.83;100.00;98443.66;5093844;28;20028;-45
2023/09/23 00:03:51;;;;;;;11.45;1.90;;;;;;;14.91;100.00;98448.59;5093617;28;20020;-46
2023/09/23 00:06:20;;;;;;;6.22;2.50;;;;;;;14.87;100.00;98452.72;5093207;28;20138;-46
2023/09/23 00:08:47;;;;;;;7.18;2.85;;;;;;;14.89;100.00;98453.31;5093441;28;20081;-46
2023/09/23 00:11:13;;;;;;;5.35;2.05;;;;;;;15.07;100.00;98459.44;5093703;28;20109;-45
2023/09/23 00:13:40;;;;;;;15.57;3.00;;;;;;;15.23;100.00;98465.81;5093534;28;20477;-45
2023/09/23 00:16:14;;;;;;;6.20;3.47;;;;;;;15.38;100.00;98471.41;5093437;28;20063;-46
2023/09/23 00:18:40;;;;;;;13.60;3.03;;;;;;;15.55;100.00;98466.13;5093428;28;20028;-46
2023/09/23 00:21:08;;;;;;;16.92;3.97;;;;;;;15.55;100.00;98471.44;5093285;28;20258;-46
2023/09/23 00:23:34;;;;;;;17.58;4.93;;;;;;;15.62;100.00;98466.00;5093214;28;20024;-46
2023/09/23 00:26:01;;;;;;;10.90;3.70;;;;;;;15.60;100.00;98463.59;5092789;28;20026;-46
2023/09/23 00:28:28;;;;;;;8.55;3.70;;;;;;;15.57;100.00;98464.06;5093075;28;20016;-46
2023/09/23 00:31:01;;;;;;;11.43;4.68;;;;;;;15.80;100.00;98465.03;5093377;28;20024;-46
2023/09/23 00:33:27;;;;;;;9.40;3.95;;;;;;;15.81;100.00;98469.25;5093090;28;20030;-46
2023/09/23 00:35:52;;;;;;;7.82;2.83;;;;;;;15.76;100.00;98460.19;5091749;28;20036;-46
2023/09/23 00:38:19;;;;;;;3.30;1.52;;;;;;;15.58;100.00;98465.69;5091643;28;20108;-46
2023/09/23 00:40:45;;;;;;;9.27;1.77;;;;;;;15.30;100.00;98479.72;5091635;28;20038;-46
2023/09/23 00:43:13;;;;;;;5.55;1.80;;;;;;;15.17;100.00;98478.97;5092852;28;20031;-46
2023/09/23 00:45:48;;;;;;;9.98;3.58;;;;;;;15.13;100.00;98477.81;5092712;28;20020;-46
2023/09/23 00:48:18;;;;;;;17.13;4.50;;;;;;;15.30;100.00;98479.72;5092732;28;20032;-45
2023/09/23 00:50:46;;;;;;;8.05;4.03;;;;;;;15.42;100.00;98480.47;5092766;28;20032;-46
2023/09/23 00:53:12;;;;;;;16.23;4.20;;;;;;;15.52;100.00;98477.22;5092860;28;20484;-46
2023/09/23 00:55:42;;;;;;;14.27;7.20;;;;;;;15.46;100.00;98478.94;5092560;28;20024;-46
2023/09/23 00:58:14;;;;;;;12.55;3.83;;;;;;;15.28;100.00;98484.44;5092495;28;20107;-46
2023/09/23 01:00:43;;;;;;;10.10;3.95;;;;;;;15.06;100.00;98481.63;5092588;28;20032;-46
2023/09/23 01:03:12;;;;;;;54.90;7.70;;;;;;;14.89;100.00;98482.38;5092869;28;20028;-46
2023/09/23 01:05:42;;;;;;;26.65;5.10;;;;;;;14.67;100.00;98479.53;5090780;28;20443;-46
2023/09/23 01:08:11;;;;;;;19.10;4.75;;;;;;;14.52;100.00;98485.25;5091142;28;20077;-46
2023/09/23 01:10:37;;;;;;;12.43;5.05;;;;;;;14.38;100.00;98489.94;5092310;28;20028;-46
2023/09/23 01:13:06;;;;;;;18.17;6.00;;;;;;;14.27;100.00;98485.47;5091019;28;20259;-46
2023/09/23 01:15:34;;;;;;;17.13;4.88;;;;;;;14.24;100.00;98491.22;5092548;28;20524;-46
2023/09/23 01:18:01;;;;;;;21.90;5.78;;;;;;;14.15;100.00;98498.66;5092543;28;20028;-46
2023/09/23 01:20:26;;;;;;;31.23;6.00;;;;;;;14.12;100.00;98490.41;5092480;28;20077;-46
2023/09/23 01:22:57;;;;;;;10.32;5.85;;;;;;;14.13;100.00;98498.09;5090843;28;20036;-46
2023/09/23 01:25:24;;;;;;;18.35;7.28;;;;;;;14.31;100.00;98499.84;5092302;28;20106;-46
2023/09/23 01:27:50;;;;;;;12.43;8.55;;;;;;;14.43;100.00;98494.56;5092163;28;20020;-46
2023/09/23 01:30:16;;;;;;;19.75;6.43;;;;;;;14.69;100.00;98490.66;5090769;28;20375;-46
2023/09/23 01:32:41;;;;;;;23.73;6.60;;;;;;;14.91;100.00;98495.31;5090752;28;20104;-46
2023/09/23 01:35:09;;;;;;;20.45;6.90;;;;;;;15.13;100.00;98493.69;5091727;28;20028;-46
2023/09/23 01:37:37;;;;;;;13.15;6.15;;;;;;;15.27;100.00;98496.03;5091268;28;20025;-46
2023/09/23 01:40:05;;;;;;;12.85;6.53;;;;;;;15.24;100.00;98486.75;5090634;28;20028;-45
2023/09/23 01:42:32;;;;;;;13.65;3.20;;;;;;;15.04;100.00;98492.44;5091940;28;20547;-46
2023/09/23 01:44:58;;;;;;;12.80;2.00;;;;;;;14.60;100.00;98491.25;5091848;28;20023;-46
2023/09/23 01:47:25;;;;;;;3.15;1.35;;;;;;;14.14;100.00;98488.34;5092025;28;20016;-46
2023/09/23 01:49:51;;;;;;;6.85;1.75;;;;;;;13.74;100.00;98495.03;5092127;28;20025;-46
2023/09/23 01:52:17;;;;;;;10.00;2.53;;;;;;;13.51;100.00;98489.69;5091759;28;20030;-46
2023/09/23 01:54:44;;;;;;;6.97;2.33;;;;;;;13.35;100.00;98494.53;5073684;28;20035;-46
2023/09/23 01:57:16;;;;;;;6.20;1.95;;;;;;;13.26;100.00;98503.78;5090763;28;20036;-46
2023/09/23 01:59:46;;;;;;;14.13;3.60;;;;;;;13.28;100.00;98501.72;5092080;28;20032;-45
2023/09/23 02:02:11;;;;;;;17.45;3.53;;;;;;;13.76;100.00;98500.06;5091717;28;20023;-45
2023/09/23 02:04:39;;;;;;;10.13;3.03;;;;;;;14.19;100.00;98505.09;5073675;28;20020;-45
2023/09/23 02:07:07;;;;;;;9.55;2.40;;;;;;;14.47;100.00;98518.66;5091366;28;20060;-46
2023/09/23 02:09:37;;;;;;;11.90;2.78;;;;;;;14.63;100.00;98504.81;5091710;28;20020;-46
2023/09/23 02:12:03;;;;;;;6.53;1.77;;;;;;;14.68;100.00;98506.75;5090509;28;20028;-46
2023/09/23 02:14:30;;;;;;;6.93;1.70;;;;;;;14.58;100.00;98505.47;5090699;28;20065;-46
2023/09/23 02:16:57;;;;;;;14.70;1.95;;;;;;;14.60;100.00;98504.44;5091868;28;20497;-46
2023/09/23 02:19:24;;;;;;;8.10;1.25;;;;;;;14.50;100.00;98505.00;5091646;28;20024;-46
2023/09/23 02:21:51;;;;;;;4.28;1.30;;;;;;;14.28;100.00;98502.91;5091606;28;20031;-46
2023/09/23 02:24:20;;;;;;;10.75;2.42;;;;;;;14.25;100.00;98503.38;5091510;28;20031;-46
2023/09/23 02:26:46;;;;;;;7.68;3.17;;;;;;;14.37;100.00;98503.41;5091493;28;20028;-46
2023/09/23 02:29:15;;;;;;;11.85;5.18;;;;;;;14.46;100.00;98498.56;5091526;28;20039;-46
2023/09/23 02:31:47;;;;;;;11.30;9.07;;;;;;;14.47;100.00;98506.28;5090221;28;20441;-46
2023/09/23 02:34:17;;;;;;;7.72;4.50;;;;;;;14.47;100.00;98508.09;5091472;28;20578;-46
2023/09/23 02:36:45;;;;;;;4.82;2.53;;;;;;;14.51;100.00;98509.25;5091776;28;20046;-46
2023/09/23 02:39:19;;;;;;;7.43;3.55;;;;;;;14.62;100.00;98512.94;5091657;28;20016;-46
2023/09/23 02:41:49;;;;;;;4.30;2.35;;;;;;;14.76;100.00;98523.03;5091398;28;20036;-46
2023/09/23 02:44:19;;;;;;;43.20;32.17;;;;;;;14.78;100.00;98520.97;5091641;28;20035;-46
2023/09/23 02:46:49;;;;;;;5.50;3.28;;;;;;;14.64;100.00;98511.69;5091232;28;20082;-46
2023/09/23 02:49:16;;;;;;;7.30;2.42;;;;;;;14.16;100.00;98521.38;5094914;28;20031;-46
2023/09/23 02:51:42;;;;;;;9.20;2.40;;;;;;;13.87;100.00;98522.25;5093740;28;20490;-46
2023/09/23 02:54:11;;;;;;;9.65;4.30;;;;;;;13.79;100.00;98518.91;5094931;28;20028;-46
2023/09/23 02:56:37;;;;;;;5.38;3.25;;;;;;;13.89;100.00;98517.56;5094966;28;20028;-46
2023/09/23 02:59:48;;;;;;;12.70;3.20;;;;;;;14.09;100.00;98525.97;5094910;28;20039;-46
2023/09/23 03:01:53;;;;;;;5.47;2.50;;;;;;;14.15;100.00;98519.78;5089045;28;20044;-46
2023/09/23 03:04:23;;;;;;;7.07;2.28;;;;;;;13.96;100.00;98521.72;5094757;28;20024;-46
2023/09/23 03:07:01;;;;;;;14.18;2.45;;;;;;;13.58;100.00;98527.31;5094447;28;20090;-46
2023/09/23 03:09:32;;;;;;;3.70;1.95;;;;;;;13.35;100.00;98531.44;5094725;28;20481;-46
2023/09/23 03:12:00;;;;;;;7.47;2.70;;;;;;;12.97;100.00;98532.47;5094971;28;20378;-46
2023/09/23 03:14:40;;;;;;;6.82;2.20;;;;;;;12.72;100.00;98535.16;5094894;28;20452;-46
2023/09/23 03:17:09;;;;;;;3.80;2.10;;;;;;;12.52;100.00;98537.19;5094577;28;20112;-46
2023/09/23 03:19:36;;;;;;;6.10;3.08;;;;;;;12.35;100.00;98542.16;5093214;28;20138;-45
2023/09/23 03:22:01;;;;;;;7.45;2.70;;;;;;;12.22;100.00;98540.47;5094427;28;20119;-46
2023/09/23 03:24:29;;;;;;;15.02;3.60;;;;;;;12.11;100.00;98541.13;5093066;28;20486;-46
2023/09/23 03:27:00;;;;;;;8.43;3.00;;;;;;;12.20;100.00;98537.25;5094172;28;20024;-45
2023/09/23 03:29:32;;;;;;;9.32;2.50;;;;;;;12.27;100.00;98545.06;5094417;28;20112;-45
2023/09/23 03:31:59;;;;;;;3.35;2.50;;;;;;;12.31;100.00;98544.41;5094292;28;20391;-45
2023/09/23 03:34:26;;;;;;;16.10;6.03;;;;;;;12.39;100.00;98545.97;5092928;28;20513;-45
2023/09/23 03:36:53;;;;;;;6.03;2.78;;;;;;;12.78;100.00;98547.47;5094453;28;20375;-46
2023/09/23 03:39:20;;;;;;;2.35;1.52;;;;;;;12.97;100.00;98547.47;5094106;28;20111;-46
2023/09/23 03:41:49;;;;;;;5.72;1.08;;;;;;;12.81;100.00;98538.31;5094074;28;20047;-46
2023/09/23 03:44:14;;;;;;;13.30;2.47;;;;;;;12.59;100.00;98541.34;5094004;28;20394;-46
2023/09/23 03:46:50;;;;;;;3.63;1.10;;;;;;;12.45;100.00;98545.13;5092601;28;20028;-46
2023/09/23 03:49:17;;;;;;;;;;;;;;;12.37;100.00;98543.59;5094458;28;20110;-45
2023/09/23 03:51:43;;;;;;;5.43;1.40;;;;;;;12.34;100.00;98537.94;5093833;28;19918;-46
2023/09/23 03:54:09;;;;;;;7.70;1.77;;;;;;;12.33;100.00;98545.00;5092540;28;20028;-46
2023/09/23 03:56:35;;;;;;;14.65;2.00;;;;;;;12.45;100.00;98539.84;5094053;28;20028;-46
2023/09/23 03:59:06;;;;;;;7.00;1.83;;;;;;;12.59;100.00;98538.72;5092767;28;20427;-45
2023/09/23 04:01:38;;;;;;;10.23;1.55;;;;;;;12.79;100.00;98545.63;5093792;28;20028;-46
2023/09/23 04:04:06;;;;;;;5.18;1.30;;;;;;;12.85;100.00;98550.03;5093953;28;20124;-45
2023/09/23 04:06:33;;;;;;;6.60;1.50;;;;;;;12.86;100.00;98556.09;5093297;28;20055;-45
2023/09/23 04:08:59;;;;;;;13.00;1.73;;;;;;;12.77;100.00;98558.22;5093493;28;20020;-46
2023/09/23 04:11:26;;;;;;;7.60;1.70;;;;;;;12.72;100.00;98563.34;5093725;28;20024;-46
2023/09/23 04:13:53;;;;;;;5.35;1.70;;;;;;;12.83;100.00;98562.59;5093434;28;20062;-45
2023/09/23 04:16:19;;;;;;;8.75;2.35;;;;;;;13.08;100.00;98567.00;5093314;28;20024;-45
2023/09/23 04:18:46;;;;;;;7.13;1.92;;;;;;;13.24;100.00;98557.72;5092063;28;20393;-46
2023/09/23 04:21:12;;;;;;;8.70;2.00;;;;;;;13.27;100.00;98565.97;5093244;28;20107;-45
2023/09/23 04:23:39;;;;;;;7.28;2.30;;;;;;;13.42;100.00;98570.09;5091960;28;20081;-46
2023/09/23 04:26:05;;;;;;;8.73;2.40;;;;;;;13.56;100.00;98577.66;5093410;28;20397;-46
2023/09/23 04:28:31;;;;;;;8.43;1.98;;;;;;;13.80;100.00;98577.72;5091836;28;20031;-46
2023/09/23 04:30:57;;;;;;;5.40;2.25;;;;;;;13.87;100.00;98578.44;5092147;28;20020;-46
2023/09/23 04:33:27;;;;;;;7.30;2.58;;;;;;;14.07;100.00;98582.66;5093105;28;20391;-46
2023/09/23 04:35:58;;;;;;;8.77;2.55;;;;;;;14.04;100.00;98578.59;5092929;28;20047;-46
2023/09/23 04:38:24;;;;;;;7.22;1.60;;;;;;;13.85;100.00;98588.41;5093322;28;20107;-46
2023/09/23 04:40:51;;;;;;;9.63;1.38;;;;;;;13.68;100.00;98585.63;5092937;28;20099;-46
2023/09/23 04:43:17;;;;;;;7.82;1.45;;;;;;;13.51;100.00;98589.88;5091565;28;20024;-46
2023/09/23 04:45:44;;;;;;;6.95;1.83;;;;;;;13.46;100.00;98597.63;5091460;28;20040;-46
2023/09/23 04:48:09;;;;;;;10.63;1.60;;;;;;;13.39;100.00;98601.16;5092771;28;20020;-46
2023/09/23 04:50:38;;;;;;;7.10;1.75;;;;;;;13.27;100.00;98599.44;5092692;28;20051;-46
2023/09/23 04:53:04;;;;;;;8.30;2.40;;;;;;;13.17;100.00;98600.75;5092672;28;20077;-46
2023/09/23 04:55:30;;;;;;;11.43;2.05;;;;;;;13.24;100.00;98603.34;5091385;28;20028;-46
2023/09/23 04:57:56;;;;;;;8.45;2.08;;;;;;;13.33;100.00;98609.94;5092585;28;20020;-46
2023/09/23 05:00:22;;;;;;;4.47;1.75;;;;;;;13.33;100.00;98614.41;5092535;28;20160;-46
2023/09/23 05:02:49;;;;;;;5.45;1.55;;;;;;;13.36;100.00;98620.06;5091256;28;20020;-45
2023/09/23 05:05:17;;;;;;;7.28;1.90;;;;;;;13.24;100.00;98624.41;5092453;28;20401;-46
2023/09/23 05:07:43;;;;;;;4.15;1.48;;;;;;;13.10;100.00;98628.19;5092463;28;20089;-46
2023/09/23 05:10:14;;;;;;;3.00;1.20;;;;;;;13.01;100.00;98638.22;5092386;28;20036;-46
2023/09/23 05:12:41;;;;;;;7.43;1.48;;;;;;;12.81;100.00;98633.13;5092421;28;20028;-46
2023/09/23 05:15:10;;;;;;;13.57;2.33;;;;;;;12.77;100.00;98643.28;5092309;28;20024;-46
2023/09/23 05:17:36;;;;;;;9.88;1.83;;;;;;;12.77;100.00;98648.53;5092291;28;20028;-46
2023/09/23 05:20:16;;;;;;;6.32;1.30;;;;;;;12.67;100.00;98648.22;5092288;28;20036;-46
2023/09/23 05:22:42;;;;;;;6.75;1.67;;;;;;;12.65;100.00;98644.19;5092588;28;20058;-46
2023/09/23 05:25:08;;;;;;;8.98;1.70;;;;;;;12.78;100.00;98652.00;5092179;28;20486;-46
2023/09/23 05:27:33;;;;;;;7.90;1.48;;;;;;;12.85;100.00;98657.19;5074015;28;20016;-46
2023/09/23 05:29:59;;;;;;;10.23;2.72;;;;;;;12.84;100.00;98658.22;5092136;28;20023;-46
2023/09/23 05:32:25;;;;;;;5.55;1.50;;;;;;;12.96;100.00;98659.94;5092086;28;20508;-46
2023/09/23 05:34:54;;;;;;;3.42;1.73;;;;;;;12.93;100.00;98664.84;5091965;28;20547;-45
2023/09/23 05:37:20;;;;;;;4.32;1.85;;;;;;;12.90;100.00;98673.19;5092027;28;20020;-46
2023/09/23 05:39:46;;;;;;;8.27;1.98;;;;;;;12.81;100.00;98675.25;5091989;28;20091;-46
2023/09/23 05:42:13;;;;;;;5.57;1.92;;;;;;;12.72;100.00;98673.94;5091955;28;20104;-46
2023/09/23 05:44:40;;;;;;;7.28;1.92;;;;;;;12.65;100.00;98671.31;5091916;28;20024;-45
2023/09/23 05:47:06;;;;;;;10.10;2.53;;;;;;;12.65;100.00;98679.22;5091712;28;20023;-46
2023/09/23 05:49:33;;;;;;;7.40;1.88;;;;;;;12.76;100.00;98683.81;5090646;28;20036;-45
2023/09/23 05:51:58;;;;;;;3.70;1.30;;;;;;;13.02;100.00;98686.44;5091873;28;20034;-46
2023/09/23 05:54:24;;;;;;;5.18;2.10;;;;;;;13.39;100.00;98685.50;5091879;28;20020;-46
2023/09/23 05:56:49;;;;;;;10.85;2.20;;;;;;;13.54;100.00;98686.97;5091846;28;20089;-46
2023/09/23 05:59:15;;;;;;;4.53;1.80;;;;;;;13.52;100.00;98686.38;5090495;28;20055;-46
2023/09/23 06:01:42;;;;;;;4.95;1.60;;;;;;;13.61;100.00;98693.00;5091876;28;20016;-46
2023/09/23 06:04:10;;;;;;;7.07;1.75;;;;;;;13.79;100.00;98703.53;5090483;28;20490;-46
2023/09/23 06:06:39;;;;;;;11.68;2.30;;;;;;;13.85;100.00;98699.22;5090200;28;20063;-46
2023/09/23 06:09:06;;;;;;;25.13;4.05;;;;;;;13.82;100.00;98699.66;5090440;28;20148;-46
2023/09/23 06:11:32;;;;;;;10.02;2.40;;;;;;;13.93;100.00;98704.19;5091601;28;20028;-46
2023/09/23 06:13:58;;;;;;;2.80;1.60;;;;;;;13.89;100.00;98718.06;5091710;28;20031;-46
2023/09/23 06:16:24;;;;;;;11.80;2.25;;;;;;;13.88;100.00;98713.78;5091665;28;20027;-46
2023/09/23 06:18:49;;;;;;;6.75;2.40;;;;;;;13.81;100.00;98715.72;5090306;28;20553;-46
2023/09/23 06:21:15;;;;;;;7.65;1.90;;;;;;;13.78;100.00;98723.03;5090285;28;20040;-46
2023/09/23 06:23:41;;;;;;;12.20;3.20;;;;;;;13.78;100.00;98719.56;5094572;28;20016;-46
2023/09/23 06:26:08;;;;;;;12.65;2.90;;;;;;;13.80;100.00;98725.44;5095469;28;20023;-46
2023/09/23 06:28:35;;;;;;;11.20;2.30;;;;;;;14.04;100.00;98728.22;5095507;28;20484;-46
2023/09/23 06:31:01;;;;;;;6.05;2.42;;;;;;;14.37;100.00;98733.88;5095444;28;20024;-46
2023/09/23 06:33:28;;;;;;;9.35;2.80;;;;;;;14.68;100.00;98732.06;5095652;28;20020;-46
2023/09/23 06:35:53;;;;;;;14.60;3.47;;;;;;;14.83;100.00;98730.81;5095385;28;20036;-46
2023/09/23 06:38:19;;;;;;;11.52;2.30;;;;;;;14.98;100.00;98742.59;5094054;28;20016;-46
2023/09/23 06:40:45;;;;;;;11.00;2.63;;;;;;;15.24;100.00;98745.84;5095106;28;20110;-46
2023/09/23 06:43:12;;;;;;;17.58;3.67;;;;;;;15.47;100.00;98745.03;5095263;28;20074;-46
2023/09/23 06:45:37;;;;;;;8.90;3.38;;;;;;;15.79;100.00;98755.28;5095116;28;20401;-46
2023/09/23 06:48:04;;;;;;;5.57;2.40;;;;;;;16.33;100.00;98757.69;5095112;28;20039;-46
2023/09/23 06:50:30;;;;;;;7.05;2.58;;;;;;;17.63;100.00;98756.94;5095081;28;20016;-46
2023/09/23 06:52:55;;;;;;;5.78;1.70;;;;;;;18.33;100.00;98758.88;5095066;28;20023;-46
2023/09/23 06:55:21;;;;;;;5.32;1.73;;;;;;;18.48;97.41;98758.25;5093751;28;20032;-46
2023/09/23 06:57:47;;;;;;;7.07;2.30;;;;;;;18.14;94.24;98769.03;5093643;28;20391;-46
2023/09/23 07:00:13;;;;;;;6.35;1.77;;;;;;;18.02;93.16;98773.66;5094926;28;20500;-46
2023/09/23 07:02:38;;;;;;;4.28;1.80;;;;;;;18.15;90.84;98778.59;5093531;28;20024;-46
2023/09/23 07:05:05;;;;;;;6.20;1.58;;;;;;;18.65;91.41;98776.78;5093520;28;20062;-46
2023/09/23 07:07:31;;;;;;;6.35;2.25;;;;;;;19.71;90.56;98779.78;5094591;28;20039;-46
2023/09/23 07:09:56;;;;;;;7.65;1.90;;;;;;;20.26;86.41;98780.28;5094747;28;20385;-46
2023/09/23 07:12:22;;;;;;;2.17;1.60;;;;;;;20.29;84.63;98779.78;5093378;28;20035;-46
2023/09/23 07:14:49;;;;;;;7.30;2.08;;;;;;;20.03;85.07;98785.00;5093342;28;20131;-46
2023/09/23 07:17:15;;;;;;;5.53;1.85;;;;;;;20.05;84.60;98793.53;5093315;28;20031;-46
2023/09/23 07:19:41;;;;;;;5.40;1.45;;;;;;;19.97;86.52;98794.03;5093280;28;20020;-46
2023/09/23 07:22:06;;;;;;;8.25;2.67;;;;;;;20.50;86.63;98796.63;5094554;28;20085;-46
2023/09/23 07:24:35;;;;;;;13.05;2.00;;;;;;;21.53;81.32;98797.53;5094713;28;20471;-44
2023/09/23 07:27:01;;;;;;;7.63;1.98;;;;;;;21.57;78.64;98803.97;5094361;28;20085;-45
2023/09/23 07:29:26;;;;;;;4.43;1.50;;;;;;;21.61;79.44;98807.72;5094472;28;20493;-44
2023/09/23 07:31:55;;;;;;;6.15;1.75;;;;;;;21.98;76.03;98814.56;5094389;28;20396;-44
2023/09/23 07:34:21;;;;;;;12.73;2.53;;;;;;;21.49;75.59;98820.53;5094270;28;20023;-45
2023/09/23 07:36:47;;;;;;;10.43;2.55;;;;;;;20.91;79.06;98824.22;5094435;28;20028;-45
2023/09/23 07:39:13;;;;;;;3.53;1.60;;;;;;;20.60;78.11;98830.53;5094180;28;20485;-44
2023/09/23 07:41:39;;;;;;;6.60;1.98;;;;;;;21.78;79.16;98828.78;5094074;28;20024;-44
2023/09/23 07:44:05;;;;;;;5.00;1.85;;;;;;;23.31;74.83;98826.47;5094163;28;20020;-45
2023/09/23 07:46:32;;;;;;;8.43;2.40;;;;;;;24.34;69.91;98831.59;5093974;28;20024;-45
2023/09/23 07:48:58;;;;;;;14.55;2.83;;;;;;;25.12;68.65;98832.94;5093924;28;20069;-44
2023/09/23 07:51:23;;;;;;;7.13;1.88;;;;;;;25.49;66.86;98831.31;5092735;28;20024;-45
2023/09/23 07:53:52;;;;;;;7.30;2.15;;;;;;;25.86;63.58;98826.09;5092588;28;20024;-45
2023/09/23 07:56:18;;;;;;;9.90;2.38;;;;;;;26.15;63.86;98825.81;5092554;28;20414;-45
2023/09/23 07:58:44;;;;;;;4.00;1.63;;;;;;;26.13;62.22;98829.91;5093821;28;20028;-45
2023/09/23 08:01:09;;;;;;;6.72;2.00;;;;;;;26.35;62.65;98832.69;5093736;28;20028;-45
2023/09/23 08:03:35;;;;;;;7.47;2.20;;;;;;;26.55;62.12;98825.28;5093773;28;20016;-45
2023/09/23 08:06:01;;;;;;;15.52;3.25;;;;;;;26.73;59.90;98826.25;5093344;28;20040;-45
2023/09/23 08:08:26;;;;;;;15.75;2.55;;;;;;;26.69;60.12;98836.84;5092289;28;20039;-44
2023/09/23 08:10:53;;;;;;;13.88;3.30;;;;;;;26.85;60.33;98831.91;5092297;28;20174;-45
2023/09/23 08:13:20;;;;;;;8.05;1.67;;;;;;;26.66;59.62;98834.75;5093752;28;20093;-45
2023/09/23 08:15:46;;;;;;;10.80;1.98;;;;;;;26.93;58.71;98838.47;5093423;28;20016;-45
2023/09/23 08:18:15;;;;;;;3.97;1.50;;;;;;;26.25;59.36;98844.44;5093481;28;20024;-45
2023/09/23 08:20:41;;;;;;;10.68;2.22;;;;;;;25.55;61.36;98852.72;5093391;28;20087;-44
2023/09/23 08:23:07;;;;;;;8.45;1.80;;;;;;;25.57;62.20;98856.69;5093323;28;20022;-45
2023/09/23 08:25:35;;;;;;;14.13;2.05;;;;;;;26.23;61.34;98856.59;5093128;28;20488;-45
2023/09/23 08:28:01;;;;;;;7.63;1.63;;;;;;;27.07;60.34;98858.84;5091894;28;20028;-45
2023/09/23 08:30:27;;;;;;;4.72;1.33;;;;;;;27.60;59.04;98859.25;5093205;28;20031;-45
2023/09/23 08:32:54;;;;;;;11.02;2.72;;;;;;;28.41;57.55;98855.44;5091928;28;20028;-45
2023/09/23 08:35:20;;;;;;;3.35;1.30;;;;;;;29.02;56.86;98853.66;5093308;28;20103;-45
2023/09/23 08:37:46;;;;;;;4.40;1.60;;;;;;;29.47;54.47;98855.19;5093059;28;20588;-45
2023/09/23 08:40:13;;;;;;;7.57;2.08;;;;;;;29.64;53.35;98862.47;5092979;28;20023;-45
2023/09/23 08:42:39;;;;;;;6.15;1.30;;;;;;;29.73;53.34;98865.97;5091602;28;20027;-45
2023/09/23 08:45:08;;;;;;;8.82;1.88;;;;;;;29.81;51.40;98867.06;5092330;28;20024;-45
2023/09/23 08:47:35;;;;;;;21.40;2.92;;;;;;;29.79;51.25;98866.59;5092672;28;20073;-45
2023/09/23 08:50:01;;;;;;;4.68;1.15;;;;;;;28.81;53.43;98868.88;5091627;28;20069;-45
2023/09/23 08:52:31;;;;;;;2.97;1.30;;;;;;;27.34;55.76;98869.84;5092699;28;20028;-45
2023/09/23 08:54:57;;;;;;;2.35;1.27;;;;;;;26.25;59.81;98876.72;5092778;28;20545;-45
2023/09/23 08:57:23;;;;;;;8.02;1.90;;;;;;;27.09;58.66;98870.13;5092609;28;20120;-45
2023/09/23 08:59:49;;;;;;;5.20;1.55;;;;;;;27.87;57.73;98877.19;5092908;28;20024;-45
2023/09/23 09:02:22;;;;;;;4.32;1.80;;;;;;;29.24;52.85;98868.91;5092503;28;20397;-45
2023/09/23 09:04:53;;;;;;;4.30;1.60;;;;;;;28.48;52.40;98882.78;5092650;28;20025;-45
2023/09/23 09:07:18;;;;;;;17.63;3.50;;;;;;;26.99;56.99;98872.28;5092182;28;20502;-45
2023/09/23 09:09:44;;;;;;;1.67;1.05;;;;;;;27.68;55.09;98874.66;5092445;28;20026;-45
2023/09/23 09:12:10;;;;;;;8.10;2.55;;;;;;;28.55;55.79;98872.34;5092424;28;20020;-45
2023/09/23 09:14:36;;;;;;;7.78;2.28;;;;;;;29.38;53.31;98873.34;5092369;28;20054;-45
2023/09/23 09:17:02;;;;;;;5.30;1.30;;;;;;;29.50;52.86;98873.50;5092370;28;20071;-45
2023/09/23 09:19:27;;;;;;;3.58;1.52;;;;;;;29.36;53.67;98873.69;5092290;28;20434;-45
2023/09/23 09:21:54;;;;;;;2.28;1.10;;;;;;;29.83;54.54;98883.78;5092525;28;20030;-45
2023/09/23 09:24:22;;;;;;;7.15;1.30;;;;;;;30.34;52.14;98873.88;5092179;28;20016;-45
2023/09/23 09:26:48;;;;;;;14.07;2.15;;;;;;;29.05;52.83;98876.53;5092348;28;20067;-45
2023/09/23 09:29:14;;;;;;;9.18;1.67;;;;;;;27.22;55.72;98881.94;5090832;28;20024;-45
2023/09/23 09:31:42;;;;;;;2.08;1.30;;;;;;;25.69;56.51;98891.16;5090846;28;20568;-45
2023/09/23 09:34:12;;;;;;;9.77;1.60;;;;;;;26.21;61.76;98889.19;5092359;28;20043;-45
2023/09/23 09:36:39;;;;;;;5.20;1.17;;;;;;;27.50;60.91;98882.63;5092070;28;20544;-45
2023/09/23 09:39:08;;;;;;;3.47;0.90;;;;;;;28.46;57.86;98885.81;5092120;28;20493;-45
2023/09/23 09:42:02;;;;;;;3.60;0.98;;;;;;;29.62;52.22;98881.75;5092284;28;20401;-45
2023/09/23 09:44:29;;;;;;;3.90;1.20;;;;;;;29.64;50.71;98881.41;5089829;28;20042;-45
2023/09/23 09:46:56;;;;;;;16.55;2.45;;;;;;;30.53;49.81;98878.09;5090556;28;20489;-45
2023/09/23 09:49:23;;;;;;;22.83;2.53;;;;;;;30.50;47.20;98876.03;5091860;28;20016;-45
2023/09/23 09:51:49;;;;;;;1.95;1.00;;;;;;;31.12;45.46;98885.31;5091900;28;20034;-45
2023/09/23 09:54:21;;;;;;;2.58;0.77;;;;;;;31.61;43.44;98877.38;5091815;28;20509;-45
2023/09/23 09:56:50;;;;;;;6.97;1.58;;;;;;;32.32;43.61;98870.81;5091847;28;20028;-45
2023/09/23 09:59:23;;;;;;;3.03;1.10;;;;;;;33.01;41.09;98860.03;5095970;28;20032;-45
2023/09/23 10:01:55;;;;;;;4.10;0.80;;;;;;;33.43;40.40;98863.13;5095966;28;20024;-45
2023/09/23 10:04:20;;;;;;;6.32;1.45;;;;;;;33.74;38.79;98856.16;5094841;28;20023;-45
2023/09/23 10:06:54;;;;;;;6.25;1.40;;;;;;;33.98;37.51;98855.19;5094225;28;20044;-45
2023/09/23 10:09:29;;;;;;;1.90;0.70;;;;;;;34.00;34.80;98861.09;5096021;28;20032;-45
2023/09/23 10:11:58;;;;;;;6.25;1.20;;;;;;;33.25;35.71;98867.31;5095814;28;20078;-45
2023/09/23 10:14:24;;;;;;;6.07;1.35;;;;;;;33.37;35.77;98871.91;5095721;28;20020;-45
2023/09/23 10:17:05;;;;;;;4.75;1.17;;;;;;;33.76;34.27;98861.28;5095716;28;20024;-46
2023/09/23 10:19:42;;;;;;;4.72;1.05;;;;;;;34.02;34.26;98864.25;5095671;28;20490;-45
2023/09/23 10:22:17;;;;;;;8.40;1.67;;;;;;;34.13;33.21;98855.53;5095662;28;20024;-45
2023/09/23 10:24:43;;;;;;;8.70;1.48;;;;;;;34.45;32.49;98860.94;5095658;28;20024;-44
2023/09/23 10:27:10;;;;;;;8.52;1.10;;;;;;;34.47;29.66;98864.91;5094192;28;20070;-45
2023/09/23 10:29:49;;;;;;;6.90;1.20;;;;;;;33.67;29.59;98864.16;5095465;28;20034;-45
2023/09/23 10:32:17;;;;;;;6.53;1.20;;;;;;;33.24;29.13;98860.28;5095764;28;20401;-45
2023/09/23 10:34:47;;;;;;;7.70;1.55;;;;;;;31.58;29.61;98868.00;5095452;28;20034;-45
2023/09/23 10:37:23;;;;;;;5.50;1.23;;;;;;;30.86;30.91;98861.91;5094166;28;20067;-45
2023/09/23 10:39:49;;;;;;;9.40;1.95;;;;;;;29.97;32.57;98861.94;5094112;28;20028;-45
2023/09/23 10:42:15;;;;;;;5.30;1.35;;;;;;;30.84;31.32;98864.16;5095288;28;20089;-45
2023/09/23 10:44:40;;;;;;;4.97;1.40;;;;;;;31.35;30.32;98858.63;5094016;28;20016;-45
2023/09/23 10:47:07;;;;;;;4.90;1.35;;;;;;;31.83;29.81;98860.69;5095374;28;20065;-45
2023/09/23 10:49:33;;;;;;;6.95;1.25;;;;;;;32.31;29.42;98852.13;5095035;28;20036;-45
2023/09/23 10:51:58;;;;;;;3.30;1.35;;;;;;;30.77;31.09;98861.19;5094987;28;20016;-45
2023/09/23 10:54:24;;;;;;;14.15;4.53;;;;;;;30.04;32.12;98864.91;5095051;28;20056;-45
2023/09/23 10:56:52;;;;;;;2.65;0.98;;;;;;;29.06;32.22;98860.00;5094969;28;20537;-45
2023/09/23 10:59:18;;;;;;;6.57;1.17;;;;;;;28.17;33.90;98867.47;5094930;28;20021;-45
2023/09/23 11:01:45;;;;;;;12.65;2.10;;;;;;;29.07;33.76;98860.78;5094878;28;20115;-45
2023/09/23 11:04:11;;;;;;;4.88;1.20;;;;;;;30.22;31.22;98857.50;5094897;28;20028;-45
2023/09/23 11:06:37;;;;;;;8.32;1.20;;;;;;;30.56;31.59;98861.16;5094277;28;20051;-45
2023/09/23 11:09:06;;;;;;;11.27;1.75;;;;;;;29.25;32.41;98859.69;5094332;28;20133;-45
2023/09/23 11:11:36;;;;;;;13.13;2.35;;;;;;;27.81;34.03;98854.09;5094722;28;20032;-45
2023/09/23 11:14:02;;;;;;;9.07;1.38;;;;;;;26.46;35.50;98869.06;5094665;28;20021;-45
2023/09/23 11:16:28;;;;;;;4.10;1.38;;;;;;;25.29;37.01;98866.56;5093303;28;20035;-44
2023/09/23 11:18:55;;;;;;;4.82;1.25;;;;;;;24.58;38.46;98868.34;5094577;28;20405;-45
2023/09/23 11:21:21;;;;;;;3.55;1.30;;;;;;;24.95;38.57;98872.16;5094480;28;20031;-45
2023/09/23 11:23:57;;;;;;;7.80;1.42;;;;;;;26.65;36.35;98852.00;5094551;28;20028;-45
2023/09/23 11:26:23;;;;;;;9.25;1.40;;;;;;;28.15;33.38;98856.19;5094449;28;20035;-45
2023/09/23 11:28:48;;;;;;;8.93;1.45;;;;;;;28.70;31.35;98854.13;5094433;28;20492;-45